sensor_id;sensor_type;location;lat;lon;timestamp;temperature;humidity
20973;DHT22;10645;52.370;13.314;2022-09-09T00:01:50;12.50;99.90
20973;DHT22;10645;52.370;13.314;2022-09-09T00:04:35;12.50;99.90
20973;DHT22;10645;52.370;13.314;2022-09-09T00:10:16;12.50;99.90
20973;DHT22;10645;52.370;13.314;2022-09-09T00:13:09;12.50;99.90
20973;DHT22;10645;52.370;13.314;2022-09-09T00:21:21;12.40;99.90
20973;DHT22;10645;52.370;13.314;2022-09-09T00:23:55;12.40;99.90
20973;DHT22;10645;52.370;13.314;2022-09-09T00:26:47;12.30;99.90
20973;DHT22;10645;52.370;13.314;2022-09-09T00:29:23;12.30;99.90
20973;DHT22;10645;52.370;13.314;2022-09-09T00:31:57;12.30;99.90
20973;DHT22;10645;52.370;13.314;2022-09-09T00:34:29;12.40;99.90
20973;DHT22;10645;52.370;13.314;2022-09-09T00:36:56;12.40;99.90
20973;DHT22;10645;52.370;13.314;2022-09-09T00:39:36;12.50;99.90
20973;DHT22;10645;52.370;13.314;2022-09-09T00:42:14;12.40;99.90
20973;DHT22;10645;52.370;13.314;2022-09-09T00:52:56;12.20;99.90
20973;DHT22;10645;52.370;13.314;2022-09-09T00:55:48;12.20;99.90
20973;DHT22;10645;52.370;13.314;2022-09-09T00:58:15;12.40;99.90
20973;DHT22;10645;52.370;13.314;2022-09-09T01:03:31;12.30;99.90
20973;DHT22;10645;52.370;13.314;2022-09-09T01:06:23;12.40;99.90
20973;DHT22;10645;52.370;13.314;2022-09-09T01:09:13;12.30;99.90
20973;DHT22;10645;52.370;13.314;2022-09-09T01:11:52;12.30;99.90
20973;DHT22;10645;52.370;13.314;2022-09-09T01:17:10;12.30;99.90
20973;DHT22;10645;52.370;13.314;2022-09-09T01:19:48;12.30;99.90
20973;DHT22;10645;52.370;13.314;2022-09-09T01:28:24;12.00;99.90
20973;DHT22;10645;52.370;13.314;2022-09-09T01:30:55;11.90;99.90
20973;DHT22;10645;52.370;13.314;2022-09-09T01:33:24;11.90;99.90
20973;DHT22;10645;52.370;13.314;2022-09-09T01:38:35;11.80;99.90
20973;DHT22;10645;52.370;13.314;2022-09-09T01:41:02;11.80;99.90
20973;DHT22;10645;52.370;13.314;2022-09-09T01:43:41;11.70;99.90
20973;DHT22;10645;52.370;13.314;2022-09-09T01:46:07;11.70;99.90
20973;DHT22;10645;52.370;13.314;2022-09-09T01:48:35;11.70;99.90
20973;DHT22;10645;52.370;13.314;2022-09-09T01:51:05;11.70;99.90
20973;DHT22;10645;52.370;13.314;2022-09-09T01:53:31;11.60;99.90
20973;DHT22;10645;52.370;13.314;2022-09-09T01:56:02;11.60;99.90
20973;DHT22;10645;52.370;13.314;2022-09-09T02:01:12;11.60;99.90
20973;DHT22;10645;52.370;13.314;2022-09-09T02:03:46;11.70;99.90
20973;DHT22;10645;52.370;13.314;2022-09-09T02:06:38;11.90;99.90
20973;DHT22;10645;52.370;13.314;2022-09-09T02:09:19;12.10;99.90
20973;DHT22;10645;52.370;13.314;2022-09-09T02:12:01;12.30;99.90
20973;DHT22;10645;52.370;13.314;2022-09-09T02:14:42;12.40;99.90
20973;DHT22;10645;52.370;13.314;2022-09-09T02:17:16;12.30;99.90
20973;DHT22;10645;52.370;13.314;2022-09-09T02:20:22;12.30;99.90
20973;DHT22;10645;52.370;13.314;2022-09-09T02:22:56;12.30;99.90
20973;DHT22;10645;52.370;13.314;2022-09-09T02:25:26;12.30;99.90
20973;DHT22;10645;52.370;13.314;2022-09-09T02:27:57;12.30;99.90
20973;DHT22;10645;52.370;13.314;2022-09-09T02:30:24;12.40;99.90
20973;DHT22;10645;52.370;13.314;2022-09-09T02:32:58;12.30;99.90
20973;DHT22;10645;52.370;13.314;2022-09-09T02:35:39;12.20;99.90
20973;DHT22;10645;52.370;13.314;2022-09-09T02:38:10;12.10;99.90
20973;DHT22;10645;52.370;13.314;2022-09-09T02:40:40;12.00;99.90
20973;DHT22;10645;52.370;13.314;2022-09-09T02:43:06;11.90;99.90
20973;DHT22;10645;52.370;13.314;2022-09-09T02:45:44;11.80;99.90
20973;DHT22;10645;52.370;13.314;2022-09-09T02:48:20;11.80;99.90
20973;DHT22;10645;52.370;13.314;2022-09-09T02:51:12;11.70;99.90
20973;DHT22;10645;52.370;13.314;2022-09-09T02:53:47;11.70;99.90
20973;DHT22;10645;52.370;13.314;2022-09-09T02:56:17;11.80;99.90
20973;DHT22;10645;52.370;13.314;2022-09-09T02:58:47;11.90;99.90
20973;DHT22;10645;52.370;13.314;2022-09-09T03:01:13;11.80;99.90
20973;DHT22;10645;52.370;13.314;2022-09-09T03:03:40;11.90;99.90
20973;DHT22;10645;52.370;13.314;2022-09-09T03:06:11;11.90;99.90
20973;DHT22;10645;52.370;13.314;2022-09-09T03:08:39;12.00;99.90
20973;DHT22;10645;52.370;13.314;2022-09-09T03:11:05;12.20;99.90
20973;DHT22;10645;52.370;13.314;2022-09-09T03:13:35;12.30;99.90
20973;DHT22;10645;52.370;13.314;2022-09-09T03:16:01;12.40;99.90
20973;DHT22;10645;52.370;13.314;2022-09-09T03:18:30;12.50;99.90
20973;DHT22;10645;52.370;13.314;2022-09-09T03:20:57;12.50;99.90
20973;DHT22;10645;52.370;13.314;2022-09-09T03:23:26;12.40;99.90
20973;DHT22;10645;52.370;13.314;2022-09-09T03:25:52;12.30;99.90
20973;DHT22;10645;52.370;13.314;2022-09-09T03:28:27;12.30;99.90
20973;DHT22;10645;52.370;13.314;2022-09-09T03:31:02;12.40;99.90
20973;DHT22;10645;52.370;13.314;2022-09-09T03:33:33;12.30;99.90
20973;DHT22;10645;52.370;13.314;2022-09-09T03:36:00;12.20;99.90
20973;DHT22;10645;52.370;13.314;2022-09-09T03:38:26;12.20;99.90
20973;DHT22;10645;52.370;13.314;2022-09-09T03:40:56;12.20;99.90
20973;DHT22;10645;52.370;13.314;2022-09-09T03:43:24;12.30;99.90
20973;DHT22;10645;52.370;13.314;2022-09-09T03:45:52;12.30;99.90
20973;DHT22;10645;52.370;13.314;2022-09-09T03:48:19;12.40;99.90
20973;DHT22;10645;52.370;13.314;2022-09-09T03:50:47;12.50;99.90
20973;DHT22;10645;52.370;13.314;2022-09-09T03:53:14;12.40;99.90
20973;DHT22;10645;52.370;13.314;2022-09-09T03:55:45;12.20;99.90
20973;DHT22;10645;52.370;13.314;2022-09-09T03:58:14;12.20;99.90
20973;DHT22;10645;52.370;13.314;2022-09-09T04:00:40;12.20;99.90
20973;DHT22;10645;52.370;13.314;2022-09-09T04:03:09;12.10;99.90
20973;DHT22;10645;52.370;13.314;2022-09-09T04:05:35;12.10;99.90
20973;DHT22;10645;52.370;13.314;2022-09-09T04:08:08;12.00;99.90
20973;DHT22;10645;52.370;13.314;2022-09-09T04:10:35;12.00;99.90
20973;DHT22;10645;52.370;13.314;2022-09-09T04:13:04;11.90;99.90
20973;DHT22;10645;52.370;13.314;2022-09-09T04:15:31;11.80;99.90
20973;DHT22;10645;52.370;13.314;2022-09-09T04:17:57;11.80;99.90
20973;DHT22;10645;52.370;13.314;2022-09-09T04:20:24;11.70;99.90
20973;DHT22;10645;52.370;13.314;2022-09-09T04:22:50;11.70;99.90
20973;DHT22;10645;52.370;13.314;2022-09-09T04:25:16;11.60;99.90
20973;DHT22;10645;52.370;13.314;2022-09-09T04:27:42;11.60;99.90
20973;DHT22;10645;52.370;13.314;2022-09-09T04:30:09;11.50;99.90
20973;DHT22;10645;52.370;13.314;2022-09-09T04:32:36;11.50;99.90
20973;DHT22;10645;52.370;13.314;2022-09-09T04:35:03;11.50;99.90
20973;DHT22;10645;52.370;13.314;2022-09-09T04:37:29;11.50;99.90
20973;DHT22;10645;52.370;13.314;2022-09-09T04:39:56;11.50;99.90
20973;DHT22;10645;52.370;13.314;2022-09-09T04:42:22;11.50;99.90
20973;DHT22;10645;52.370;13.314;2022-09-09T04:44:48;11.50;99.90
20973;DHT22;10645;52.370;13.314;2022-09-09T04:47:15;11.60;99.90
20973;DHT22;10645;52.370;13.314;2022-09-09T04:49:41;11.50;99.90
20973;DHT22;10645;52.370;13.314;2022-09-09T04:52:07;11.60;99.90
20973;DHT22;10645;52.370;13.314;2022-09-09T04:54:35;11.50;99.90
20973;DHT22;10645;52.370;13.314;2022-09-09T04:57:01;11.50;99.90
20973;DHT22;10645;52.370;13.314;2022-09-09T04:59:28;11.50;99.90
20973;DHT22;10645;52.370;13.314;2022-09-09T05:01:56;11.60;99.90
20973;DHT22;10645;52.370;13.314;2022-09-09T05:04:22;11.60;99.90
20973;DHT22;10645;52.370;13.314;2022-09-09T05:06:50;11.60;99.90
20973;DHT22;10645;52.370;13.314;2022-09-09T05:09:16;11.60;99.90
20973;DHT22;10645;52.370;13.314;2022-09-09T05:11:43;11.70;99.90
20973;DHT22;10645;52.370;13.314;2022-09-09T05:14:22;11.80;99.90
20973;DHT22;10645;52.370;13.314;2022-09-09T05:16:49;11.90;99.90
20973;DHT22;10645;52.370;13.314;2022-09-09T05:19:16;12.00;99.90
20973;DHT22;10645;52.370;13.314;2022-09-09T05:21:47;12.20;99.90
20973;DHT22;10645;52.370;13.314;2022-09-09T05:24:16;12.30;99.90
20973;DHT22;10645;52.370;13.314;2022-09-09T05:26:43;12.40;99.90
20973;DHT22;10645;52.370;13.314;2022-09-09T05:29:10;12.40;99.90
20973;DHT22;10645;52.370;13.314;2022-09-09T05:31:36;12.60;99.90
20973;DHT22;10645;52.370;13.314;2022-09-09T05:34:06;12.80;99.90
20973;DHT22;10645;52.370;13.314;2022-09-09T05:36:33;12.80;99.90
20973;DHT22;10645;52.370;13.314;2022-09-09T05:38:59;13.00;99.90
20973;DHT22;10645;52.370;13.314;2022-09-09T05:41:26;13.10;99.90
20973;DHT22;10645;52.370;13.314;2022-09-09T05:43:56;13.10;99.90
20973;DHT22;10645;52.370;13.314;2022-09-09T05:46:23;13.10;99.90
20973;DHT22;10645;52.370;13.314;2022-09-09T05:48:52;13.20;99.90
20973;DHT22;10645;52.370;13.314;2022-09-09T05:51:24;13.20;99.90
20973;DHT22;10645;52.370;13.314;2022-09-09T05:53:51;13.30;99.90
20973;DHT22;10645;52.370;13.314;2022-09-09T05:56:20;13.40;99.90
20973;DHT22;10645;52.370;13.314;2022-09-09T05:58:49;13.50;99.90
20973;DHT22;10645;52.370;13.314;2022-09-09T06:01:19;13.60;99.90
20973;DHT22;10645;52.370;13.314;2022-09-09T06:03:47;13.60;99.90
20973;DHT22;10645;52.370;13.314;2022-09-09T06:06:16;13.60;99.90
20973;DHT22;10645;52.370;13.314;2022-09-09T06:08:44;13.70;99.90
20973;DHT22;10645;52.370;13.314;2022-09-09T06:11:23;13.90;99.90
20973;DHT22;10645;52.370;13.314;2022-09-09T06:13:50;14.00;99.90
20973;DHT22;10645;52.370;13.314;2022-09-09T06:16:25;14.10;99.90
20973;DHT22;10645;52.370;13.314;2022-09-09T06:18:53;14.20;99.90
20973;DHT22;10645;52.370;13.314;2022-09-09T06:21:22;14.30;99.90
20973;DHT22;10645;52.370;13.314;2022-09-09T06:23:50;14.40;99.90
20973;DHT22;10645;52.370;13.314;2022-09-09T06:26:22;14.50;99.90
20973;DHT22;10645;52.370;13.314;2022-09-09T06:28:51;14.50;99.90
20973;DHT22;10645;52.370;13.314;2022-09-09T06:31:23;14.60;99.90
20973;DHT22;10645;52.370;13.314;2022-09-09T06:33:52;14.60;99.90
20973;DHT22;10645;52.370;13.314;2022-09-09T06:36:20;14.70;99.90
20973;DHT22;10645;52.370;13.314;2022-09-09T06:38:47;14.80;99.90
20973;DHT22;10645;52.370;13.314;2022-09-09T06:41:16;14.90;99.90
20973;DHT22;10645;52.370;13.314;2022-09-09T06:43:45;15.00;99.90
20973;DHT22;10645;52.370;13.314;2022-09-09T06:46:17;15.10;99.90
20973;DHT22;10645;52.370;13.314;2022-09-09T06:48:46;15.20;99.90
20973;DHT22;10645;52.370;13.314;2022-09-09T06:51:18;15.30;99.90
20973;DHT22;10645;52.370;13.314;2022-09-09T06:53:50;15.40;99.90
20973;DHT22;10645;52.370;13.314;2022-09-09T06:56:23;15.50;99.90
20973;DHT22;10645;52.370;13.314;2022-09-09T06:58:52;15.60;99.90
20973;DHT22;10645;52.370;13.314;2022-09-09T07:01:25;15.80;99.90
20973;DHT22;10645;52.370;13.314;2022-09-09T07:03:55;15.90;99.90
20973;DHT22;10645;52.370;13.314;2022-09-09T07:06:24;16.10;99.90
20973;DHT22;10645;52.370;13.314;2022-09-09T07:08:56;16.10;99.90
20973;DHT22;10645;52.370;13.314;2022-09-09T07:11:28;16.30;99.90
20973;DHT22;10645;52.370;13.314;2022-09-09T07:13:57;16.30;99.90
20973;DHT22;10645;52.370;13.314;2022-09-09T07:16:23;16.30;99.90
20973;DHT22;10645;52.370;13.314;2022-09-09T07:18:51;16.50;99.90
20973;DHT22;10645;52.370;13.314;2022-09-09T07:21:18;16.60;99.90
20973;DHT22;10645;52.370;13.314;2022-09-09T07:23:45;16.80;99.90
20973;DHT22;10645;52.370;13.314;2022-09-09T07:26:14;16.80;99.90
20973;DHT22;10645;52.370;13.314;2022-09-09T07:28:41;17.10;99.90
20973;DHT22;10645;52.370;13.314;2022-09-09T07:31:23;17.40;99.90
20973;DHT22;10645;52.370;13.314;2022-09-09T07:33:49;17.60;99.90
20973;DHT22;10645;52.370;13.314;2022-09-09T07:36:30;17.80;99.90
20973;DHT22;10645;52.370;13.314;2022-09-09T07:38:59;18.10;99.90
20973;DHT22;10645;52.370;13.314;2022-09-09T07:41:33;18.10;99.90
20973;DHT22;10645;52.370;13.314;2022-09-09T07:44:07;18.40;99.90
20973;DHT22;10645;52.370;13.314;2022-09-09T07:46:35;18.40;99.90
20973;DHT22;10645;52.370;13.314;2022-09-09T07:49:02;18.50;99.90
20973;DHT22;10645;52.370;13.314;2022-09-09T07:51:37;18.70;99.90
20973;DHT22;10645;52.370;13.314;2022-09-09T07:54:06;18.70;99.90
20973;DHT22;10645;52.370;13.314;2022-09-09T07:56:34;18.60;99.90
20973;DHT22;10645;52.370;13.314;2022-09-09T07:59:01;18.70;99.90
20973;DHT22;10645;52.370;13.314;2022-09-09T08:01:29;18.80;99.90
20973;DHT22;10645;52.370;13.314;2022-09-09T08:03:59;18.90;99.90
20973;DHT22;10645;52.370;13.314;2022-09-09T08:06:47;18.80;99.90
20973;DHT22;10645;52.370;13.314;2022-09-09T08:09:14;19.00;99.90
20973;DHT22;10645;52.370;13.314;2022-09-09T08:11:42;18.90;99.90
20973;DHT22;10645;52.370;13.314;2022-09-09T08:14:10;18.90;99.90
20973;DHT22;10645;52.370;13.314;2022-09-09T08:16:39;18.90;99.90
20973;DHT22;10645;52.370;13.314;2022-09-09T08:19:07;18.90;99.90
20973;DHT22;10645;52.370;13.314;2022-09-09T08:21:36;18.90;99.90
20973;DHT22;10645;52.370;13.314;2022-09-09T08:24:04;18.90;99.90
20973;DHT22;10645;52.370;13.314;2022-09-09T08:26:38;18.80;99.90
20973;DHT22;10645;52.370;13.314;2022-09-09T08:29:07;18.80;99.90
20973;DHT22;10645;52.370;13.314;2022-09-09T08:31:39;18.90;99.90
20973;DHT22;10645;52.370;13.314;2022-09-09T08:34:07;18.90;99.90
20973;DHT22;10645;52.370;13.314;2022-09-09T08:36:35;18.80;99.90
20973;DHT22;10645;52.370;13.314;2022-09-09T08:39:04;18.80;99.90
20973;DHT22;10645;52.370;13.314;2022-09-09T08:47:19;18.90;99.90
20973;DHT22;10645;52.370;13.314;2022-09-09T08:50:35;18.90;99.90
20973;DHT22;10645;52.370;13.314;2022-09-09T08:53:16;18.90;99.90
20973;DHT22;10645;52.370;13.314;2022-09-09T08:56:02;19.00;99.90
20973;DHT22;10645;52.370;13.314;2022-09-09T08:58:48;19.10;99.90
20973;DHT22;10645;52.370;13.314;2022-09-09T09:01:28;19.40;99.90
20973;DHT22;10645;52.370;13.314;2022-09-09T09:07:22;19.50;99.90
20973;DHT22;10645;52.370;13.314;2022-09-09T09:12:38;19.80;99.90
20973;DHT22;10645;52.370;13.314;2022-09-09T09:15:17;20.20;99.90
20973;DHT22;10645;52.370;13.314;2022-09-09T09:17:44;20.60;99.90
20973;DHT22;10645;52.370;13.314;2022-09-09T09:20:15;20.90;99.90
20973;DHT22;10645;52.370;13.314;2022-09-09T09:22:50;21.20;99.90
20973;DHT22;10645;52.370;13.314;2022-09-09T09:25:20;21.40;99.90
20973;DHT22;10645;52.370;13.314;2022-09-09T09:27:52;21.50;99.90
20973;DHT22;10645;52.370;13.314;2022-09-09T09:30:26;21.70;99.90
20973;DHT22;10645;52.370;13.314;2022-09-09T09:33:00;21.80;99.90
20973;DHT22;10645;52.370;13.314;2022-09-09T09:35:28;21.60;99.90
20973;DHT22;10645;52.370;13.314;2022-09-09T09:37:54;21.60;99.90
20973;DHT22;10645;52.370;13.314;2022-09-09T09:40:21;21.50;99.90
20973;DHT22;10645;52.370;13.314;2022-09-09T09:42:57;21.50;99.90
20973;DHT22;10645;52.370;13.314;2022-09-09T09:45:32;21.60;99.90
20973;DHT22;10645;52.370;13.314;2022-09-09T09:48:05;21.80;99.90
20973;DHT22;10645;52.370;13.314;2022-09-09T09:50:33;22.00;99.90
20973;DHT22;10645;52.370;13.314;2022-09-09T09:53:03;22.00;99.90
20973;DHT22;10645;52.370;13.314;2022-09-09T09:55:33;22.20;99.90
20973;DHT22;10645;52.370;13.314;2022-09-09T09:58:03;22.20;99.90
20973;DHT22;10645;52.370;13.314;2022-09-09T10:00:30;22.20;99.90
20973;DHT22;10645;52.370;13.314;2022-09-09T10:03:22;22.20;99.90
20973;DHT22;10645;52.370;13.314;2022-09-09T10:05:49;22.40;99.90
20973;DHT22;10645;52.370;13.314;2022-09-09T10:08:17;22.70;99.90
20973;DHT22;10645;52.370;13.314;2022-09-09T10:19:10;22.50;99.90
20973;DHT22;10645;52.370;13.314;2022-09-09T10:32:44;23.10;99.90
20973;DHT22;10645;52.370;13.314;2022-09-09T10:35:27;23.40;99.90
20973;DHT22;10645;52.370;13.314;2022-09-09T10:38:16;23.40;99.90
20973;DHT22;10645;52.370;13.314;2022-09-09T10:49:45;24.00;99.90
20973;DHT22;10645;52.370;13.314;2022-09-09T10:52:21;23.90;99.90
20973;DHT22;10645;52.370;13.314;2022-09-09T10:55:09;24.00;99.90
20973;DHT22;10645;52.370;13.314;2022-09-09T10:57:40;24.10;99.90
20973;DHT22;10645;52.370;13.314;2022-09-09T11:00:24;24.00;99.90
20973;DHT22;10645;52.370;13.314;2022-09-09T11:02:56;23.90;99.90
20973;DHT22;10645;52.370;13.314;2022-09-09T11:05:44;24.00;99.90
20973;DHT22;10645;52.370;13.314;2022-09-09T11:08:18;24.10;99.90
20973;DHT22;10645;52.370;13.314;2022-09-09T11:13:59;23.30;99.90
20973;DHT22;10645;52.370;13.314;2022-09-09T11:16:39;23.20;99.90
20973;DHT22;10645;52.370;13.314;2022-09-09T11:19:24;23.30;99.90
20973;DHT22;10645;52.370;13.314;2022-09-09T11:21:52;23.70;99.90
20973;DHT22;10645;52.370;13.314;2022-09-09T11:24:29;24.00;99.90
20973;DHT22;10645;52.370;13.314;2022-09-09T11:27:18;24.20;99.90
20973;DHT22;10645;52.370;13.314;2022-09-09T11:33:18;24.50;99.90
20973;DHT22;10645;52.370;13.314;2022-09-09T11:39:01;23.50;99.90
20973;DHT22;10645;52.370;13.314;2022-09-09T11:41:36;23.30;99.90
20973;DHT22;10645;52.370;13.314;2022-09-09T11:44:17;23.00;99.90
20973;DHT22;10645;52.370;13.314;2022-09-09T11:46:48;22.80;99.90
20973;DHT22;10645;52.370;13.314;2022-09-09T11:51:57;22.80;99.90
20973;DHT22;10645;52.370;13.314;2022-09-09T11:54:34;23.40;99.90
20973;DHT22;10645;52.370;13.314;2022-09-09T11:57:37;23.80;99.90
20973;DHT22;10645;52.370;13.314;2022-09-09T12:00:04;24.00;99.90
20973;DHT22;10645;52.370;13.314;2022-09-09T12:02:48;23.90;99.90
20973;DHT22;10645;52.370;13.314;2022-09-09T12:05:15;23.70;99.90
20973;DHT22;10645;52.370;13.314;2022-09-09T12:08:11;23.80;99.90
20973;DHT22;10645;52.370;13.314;2022-09-09T12:10:53;24.10;99.90
20973;DHT22;10645;52.370;13.314;2022-09-09T12:13:22;24.40;99.90
20973;DHT22;10645;52.370;13.314;2022-09-09T12:15:53;24.60;99.90
20973;DHT22;10645;52.370;13.314;2022-09-09T12:18:40;24.50;99.90
20973;DHT22;10645;52.370;13.314;2022-09-09T12:24:37;23.90;99.90
20973;DHT22;10645;52.370;13.314;2022-09-09T12:27:24;23.70;99.90
20973;DHT22;10645;52.370;13.314;2022-09-09T12:32:34;23.40;99.90
20973;DHT22;10645;52.370;13.314;2022-09-09T12:35:22;23.20;99.90
20973;DHT22;10645;52.370;13.314;2022-09-09T12:37:56;23.20;99.90
20973;DHT22;10645;52.370;13.314;2022-09-09T12:40:28;23.10;99.90
20973;DHT22;10645;52.370;13.314;2022-09-09T12:42:55;23.10;99.90
20973;DHT22;10645;52.370;13.314;2022-09-09T12:45:26;23.10;99.90
20973;DHT22;10645;52.370;13.314;2022-09-09T12:48:05;23.10;99.90
20973;DHT22;10645;52.370;13.314;2022-09-09T12:50:37;23.00;99.90
20973;DHT22;10645;52.370;13.314;2022-09-09T12:53:22;23.00;99.90
20973;DHT22;10645;52.370;13.314;2022-09-09T12:55:54;22.90;99.90
20973;DHT22;10645;52.370;13.314;2022-09-09T12:58:22;23.00;99.90
20973;DHT22;10645;52.370;13.314;2022-09-09T13:00:50;23.00;99.90
20973;DHT22;10645;52.370;13.314;2022-09-09T13:03:19;22.90;99.90
20973;DHT22;10645;52.370;13.314;2022-09-09T13:05:47;23.00;99.90
20973;DHT22;10645;52.370;13.314;2022-09-09T13:08:14;23.10;99.90
20973;DHT22;10645;52.370;13.314;2022-09-09T13:10:59;23.10;99.90
20973;DHT22;10645;52.370;13.314;2022-09-09T13:13:32;23.00;99.90
20973;DHT22;10645;52.370;13.314;2022-09-09T13:16:02;23.00;99.90
20973;DHT22;10645;52.370;13.314;2022-09-09T13:18:33;22.80;99.90
20973;DHT22;10645;52.370;13.314;2022-09-09T13:21:00;22.90;99.90
20973;DHT22;10645;52.370;13.314;2022-09-09T13:23:36;22.90;99.90
20973;DHT22;10645;52.370;13.314;2022-09-09T13:26:24;23.00;99.90
20973;DHT22;10645;52.370;13.314;2022-09-09T13:28:53;23.00;99.90
20973;DHT22;10645;52.370;13.314;2022-09-09T13:31:30;23.00;99.90
20973;DHT22;10645;52.370;13.314;2022-09-09T13:33:58;23.10;99.90
20973;DHT22;10645;52.370;13.314;2022-09-09T13:36:29;23.20;99.90
20973;DHT22;10645;52.370;13.314;2022-09-09T13:38:58;23.10;99.90
20973;DHT22;10645;52.370;13.314;2022-09-09T13:41:32;23.20;99.90
20973;DHT22;10645;52.370;13.314;2022-09-09T13:43:59;23.20;99.90
20973;DHT22;10645;52.370;13.314;2022-09-09T13:46:34;23.20;99.90
20973;DHT22;10645;52.370;13.314;2022-09-09T13:49:16;23.10;99.90
20973;DHT22;10645;52.370;13.314;2022-09-09T13:51:47;23.10;99.90
20973;DHT22;10645;52.370;13.314;2022-09-09T13:54:17;23.10;99.90
20973;DHT22;10645;52.370;13.314;2022-09-09T13:56:43;23.10;99.90
20973;DHT22;10645;52.370;13.314;2022-09-09T13:59:18;23.20;99.90
20973;DHT22;10645;52.370;13.314;2022-09-09T14:01:47;23.20;99.90
20973;DHT22;10645;52.370;13.314;2022-09-09T14:04:15;23.30;99.90
20973;DHT22;10645;52.370;13.314;2022-09-09T14:06:41;23.10;99.90
20973;DHT22;10645;52.370;13.314;2022-09-09T14:09:11;23.00;99.90
20973;DHT22;10645;52.370;13.314;2022-09-09T14:11:38;22.80;99.90
20973;DHT22;10645;52.370;13.314;2022-09-09T14:14:04;22.50;99.90
20973;DHT22;10645;52.370;13.314;2022-09-09T14:16:31;22.20;99.90
20973;DHT22;10645;52.370;13.314;2022-09-09T14:18:57;22.00;99.90
20973;DHT22;10645;52.370;13.314;2022-09-09T14:21:23;21.80;99.90
20973;DHT22;10645;52.370;13.314;2022-09-09T14:23:50;21.70;99.90
20973;DHT22;10645;52.370;13.314;2022-09-09T14:26:16;21.60;99.90
20973;DHT22;10645;52.370;13.314;2022-09-09T14:28:42;21.60;99.90
20973;DHT22;10645;52.370;13.314;2022-09-09T14:31:08;21.40;99.90
20973;DHT22;10645;52.370;13.314;2022-09-09T14:33:36;21.40;99.90
20973;DHT22;10645;52.370;13.314;2022-09-09T14:36:03;21.40;99.90
20973;DHT22;10645;52.370;13.314;2022-09-09T14:38:32;21.40;99.90
20973;DHT22;10645;52.370;13.314;2022-09-09T14:41:00;21.40;99.90
20973;DHT22;10645;52.370;13.314;2022-09-09T14:43:29;21.40;99.90
20973;DHT22;10645;52.370;13.314;2022-09-09T14:46:04;21.50;99.90
20973;DHT22;10645;52.370;13.314;2022-09-09T14:48:32;21.50;99.90
20973;DHT22;10645;52.370;13.314;2022-09-09T14:51:07;21.50;99.90
20973;DHT22;10645;52.370;13.314;2022-09-09T14:53:33;21.70;99.90
20973;DHT22;10645;52.370;13.314;2022-09-09T14:56:14;21.90;99.90
20973;DHT22;10645;52.370;13.314;2022-09-09T14:58:40;22.00;99.90
20973;DHT22;10645;52.370;13.314;2022-09-09T15:01:09;22.10;99.90
20973;DHT22;10645;52.370;13.314;2022-09-09T15:03:39;22.30;99.90
20973;DHT22;10645;52.370;13.314;2022-09-09T15:06:15;22.50;99.90
20973;DHT22;10645;52.370;13.314;2022-09-09T15:08:42;22.80;99.90
20973;DHT22;10645;52.370;13.314;2022-09-09T15:11:11;22.90;99.90
20973;DHT22;10645;52.370;13.314;2022-09-09T15:13:39;23.10;99.90
20973;DHT22;10645;52.370;13.314;2022-09-09T15:18:32;23.00;99.90
20973;DHT22;10645;52.370;13.314;2022-09-09T15:20:59;23.00;99.90
20973;DHT22;10645;52.370;13.314;2022-09-09T15:23:27;23.00;99.90
20973;DHT22;10645;52.370;13.314;2022-09-09T15:25:54;22.90;99.90
20973;DHT22;10645;52.370;13.314;2022-09-09T15:28:21;22.90;99.90
20973;DHT22;10645;52.370;13.314;2022-09-09T15:30:52;23.00;99.90
20973;DHT22;10645;52.370;13.314;2022-09-09T15:33:19;23.00;99.90
20973;DHT22;10645;52.370;13.314;2022-09-09T15:35:45;23.10;99.90
20973;DHT22;10645;52.370;13.314;2022-09-09T15:38:11;23.10;99.90
20973;DHT22;10645;52.370;13.314;2022-09-09T15:40:40;23.00;99.90
20973;DHT22;10645;52.370;13.314;2022-09-09T15:43:07;23.00;99.90
20973;DHT22;10645;52.370;13.314;2022-09-09T15:45:33;22.80;99.90
20973;DHT22;10645;52.370;13.314;2022-09-09T15:48:00;22.80;99.90
20973;DHT22;10645;52.370;13.314;2022-09-09T15:50:27;22.80;99.90
20973;DHT22;10645;52.370;13.314;2022-09-09T15:52:55;22.70;99.90
20973;DHT22;10645;52.370;13.314;2022-09-09T15:55:21;22.60;99.90
20973;DHT22;10645;52.370;13.314;2022-09-09T15:57:47;22.60;99.90
20973;DHT22;10645;52.370;13.314;2022-09-09T16:00:13;22.60;99.90
20973;DHT22;10645;52.370;13.314;2022-09-09T16:02:39;22.60;99.90
20973;DHT22;10645;52.370;13.314;2022-09-09T16:05:06;22.60;99.90
20973;DHT22;10645;52.370;13.314;2022-09-09T16:07:32;22.60;99.90
20973;DHT22;10645;52.370;13.314;2022-09-09T16:09:58;22.60;99.90
20973;DHT22;10645;52.370;13.314;2022-09-09T16:12:25;22.50;99.90
20973;DHT22;10645;52.370;13.314;2022-09-09T16:14:52;22.50;99.90
20973;DHT22;10645;52.370;13.314;2022-09-09T16:17:18;22.50;99.90
20973;DHT22;10645;52.370;13.314;2022-09-09T16:19:46;22.50;99.90
20973;DHT22;10645;52.370;13.314;2022-09-09T16:22:12;22.30;99.90
20973;DHT22;10645;52.370;13.314;2022-09-09T16:24:41;22.20;99.90
20973;DHT22;10645;52.370;13.314;2022-09-09T16:27:07;22.10;99.90
20973;DHT22;10645;52.370;13.314;2022-09-09T16:29:33;21.90;99.90
20973;DHT22;10645;52.370;13.314;2022-09-09T16:31:59;21.80;99.90
20973;DHT22;10645;52.370;13.314;2022-09-09T16:34:26;21.60;99.90
20973;DHT22;10645;52.370;13.314;2022-09-09T16:36:52;21.50;99.90
20973;DHT22;10645;52.370;13.314;2022-09-09T16:39:19;21.30;99.90
20973;DHT22;10645;52.370;13.314;2022-09-09T16:41:47;21.20;99.90
20973;DHT22;10645;52.370;13.314;2022-09-09T16:44:15;21.10;99.90
20973;DHT22;10645;52.370;13.314;2022-09-09T16:46:43;20.90;99.90
20973;DHT22;10645;52.370;13.314;2022-09-09T16:49:13;20.80;99.90
20973;DHT22;10645;52.370;13.314;2022-09-09T16:51:43;20.70;99.90
20973;DHT22;10645;52.370;13.314;2022-09-09T16:54:10;20.60;99.90
20973;DHT22;10645;52.370;13.314;2022-09-09T16:56:39;20.40;99.90
20973;DHT22;10645;52.370;13.314;2022-09-09T16:59:13;20.30;99.90
20973;DHT22;10645;52.370;13.314;2022-09-09T17:01:41;20.30;99.90
20973;DHT22;10645;52.370;13.314;2022-09-09T17:04:12;20.10;99.90
20973;DHT22;10645;52.370;13.314;2022-09-09T17:06:39;20.00;99.90
20973;DHT22;10645;52.370;13.314;2022-09-09T17:09:08;19.90;99.90
20973;DHT22;10645;52.370;13.314;2022-09-09T17:11:36;19.80;99.90
20973;DHT22;10645;52.370;13.314;2022-09-09T17:14:03;19.70;99.90
20973;DHT22;10645;52.370;13.314;2022-09-09T17:16:31;19.60;99.90